createdAt,value
2023-04-11T00:00:11.165Z,0
2023-04-11T00:05:12.421Z,0
2023-04-11T00:10:13.968Z,0
2023-04-11T00:15:15.244Z,0
2023-04-11T00:20:16.520Z,0
2023-04-11T00:25:17.930Z,0
2023-04-11T00:30:19.169Z,0.88715
2023-04-11T00:35:20.782Z,0
2023-04-11T00:40:22.133Z,0
2023-04-11T00:45:23.385Z,0
2023-04-11T00:50:24.904Z,0
2023-04-11T00:55:26.259Z,0.88715
2023-04-11T01:00:27.725Z,0
2023-04-11T01:05:29.018Z,0
2023-04-11T01:10:30.395Z,0.88715
2023-04-11T01:15:31.814Z,0
2023-04-11T01:20:33.207Z,0
2023-04-11T01:25:34.686Z,0
2023-04-11T01:30:35.966Z,0
2023-04-11T01:35:37.418Z,0
2023-04-11T01:40:39.133Z,0
2023-04-11T01:45:40.668Z,0
2023-04-11T01:50:42.078Z,0
2023-04-11T01:55:43.823Z,0
2023-04-11T02:00:45.147Z,0
2023-04-11T02:05:46.382Z,0
2023-04-11T02:10:47.660Z,0.88715
2023-04-11T02:15:49.304Z,0
2023-04-11T02:20:50.647Z,0
2023-04-11T02:25:51.924Z,0
2023-04-11T02:30:53.521Z,0
2023-04-11T02:35:54.930Z,0
2023-04-11T02:40:56.228Z,0
2023-04-11T02:46:09.530Z,0
2023-04-11T02:51:13.617Z,0
2023-04-11T02:56:14.991Z,0.88715
2023-04-11T03:01:17.405Z,0
2023-04-11T03:06:18.688Z,0
2023-04-11T03:11:20.112Z,0
2023-04-11T03:16:21.465Z,0
2023-04-11T03:21:22.978Z,0
2023-04-11T03:26:24.470Z,0
2023-04-11T03:31:25.773Z,0
2023-04-11T03:36:27.283Z,0.88715
2023-04-11T03:41:28.741Z,0
2023-04-11T03:46:30.030Z,0
2023-04-11T03:51:31.444Z,0.88715
2023-04-11T03:56:32.878Z,0.88715
2023-04-11T04:01:34.247Z,0.88715
2023-04-11T04:06:35.626Z,0.4148
2023-04-11T04:11:37.088Z,2.6926
2023-04-11T04:16:38.523Z,7.7089
2023-04-11T04:21:47.797Z,14.4404
2023-04-11T04:26:49.578Z,26.98115
2023-04-11T04:31:51.325Z,47.52555
2023-04-11T04:36:53.050Z,67.8855
2023-04-11T04:41:54.629Z,91.3621
2023-04-11T04:46:56.300Z,104.14245
2023-04-11T04:51:58.193Z,124.1335
2023-04-11T04:57:00.152Z,138.86865
2023-04-11T05:02:01.548Z,152.6264
2023-04-11T05:07:03.542Z,160.75935
2023-04-11T05:12:07.021Z,170.42305
2023-04-11T05:17:08.485Z,180.32635
2023-04-11T05:22:09.967Z,192.1293
2023-04-11T05:27:11.713Z,198.8608
2023-04-11T05:32:13.066Z,202.5308
2023-04-11T05:37:14.670Z,211.40155
2023-04-11T05:42:16.251Z,218.3175
2023-04-11T05:47:17.509Z,236.13315
2023-04-11T05:52:18.760Z,297.82335
2023-04-11T05:57:20.378Z,354.40595
2023-04-11T06:02:21.724Z,393.83655
2023-04-11T06:07:23.078Z,427.14415
2023-04-11T06:12:24.641Z,466.7402
2023-04-11T06:17:25.931Z,488.1707
2023-04-11T06:22:27.145Z,502.68525
2023-04-11T06:27:28.801Z,523.1935
2023-04-11T06:32:30.131Z,543.09325
2023-04-11T06:37:31.440Z,561.22265
2023-04-11T06:42:33.055Z,589.4398
2023-04-11T06:47:34.496Z,588.55555
2023-04-11T06:52:36.077Z,593.665
2023-04-11T06:57:38.030Z,606.72295
2023-04-11T07:02:39.844Z,611.27905
2023-04-11T07:07:41.826Z,633.2629
2023-04-11T07:12:43.325Z,634.09385
2023-04-11T07:17:45.275Z,639.01885
2023-04-11T07:22:47.105Z,643.70425
2023-04-11T07:27:49.025Z,651.1374
2023-04-11T07:32:51.311Z,652.09765
2023-04-11T07:37:53.076Z,665.5245
2023-04-11T07:42:54.870Z,671.74065
2023-04-11T07:47:56.512Z,689.63045
2023-04-11T07:52:58.627Z,695.92075
2023-04-11T07:58:00.267Z,695.11065
2023-04-11T08:03:02.345Z,698.70835
2023-04-11T08:08:04.122Z,702.8594
2023-04-11T08:13:05.744Z,710.31155
2023-04-11T08:18:07.352Z,715.25555
2023-04-11T08:23:09.414Z,722.3388
2023-04-11T08:28:11.164Z,740.30275
2023-04-11T08:33:12.864Z,759.1338
2023-04-11T08:38:14.551Z,756
2023-04-11T08:43:16.535Z,772.1936
2023-04-11T08:48:17.908Z,780.24185
2023-04-11T08:53:19.155Z,801.3966
2023-04-11T08:58:20.877Z,821.6625
2023-04-11T09:03:22.338Z,837.54345
2023-04-11T09:08:23.951Z,863.6166
2023-04-11T09:13:25.482Z,882.6974
2023-04-11T09:18:27.070Z,901.719
2023-04-11T09:23:28.367Z,921.3331
2023-04-11T09:28:29.603Z,941.18425
2023-04-11T09:33:30.956Z,960.6207
2023-04-11T09:38:32.329Z,982.6051
2023-04-11T09:43:33.682Z,998.7232
2023-04-11T09:48:46.134Z,1014.9005
2023-04-11T09:53:48.514Z,1035.1072
2023-04-11T09:58:49.897Z,1055.0769
2023-04-11T10:03:51.529Z,1078.60215
2023-04-11T10:08:52.803Z,1101.357
2023-04-11T10:13:54.525Z,1117.238
2023-04-11T10:18:56.164Z,1137.4448
2023-04-11T10:23:57.828Z,1158.18505
2023-04-11T10:28:59.617Z,1175.84385
2023-04-11T10:34:00.977Z,1196.76185
2023-04-11T10:39:02.457Z,1213.05775
2023-04-11T10:44:03.756Z,1233.9756
2023-04-11T10:49:05.135Z,1274.38015
2023-04-11T10:54:06.592Z,1301.7302
2023-04-11T10:59:08.082Z,1325.66885
2023-04-11T11:04:09.857Z,1376.3472
2023-04-11T11:09:11.322Z,1407.3121
2023-04-11T11:14:12.875Z,1436.85655
2023-04-11T11:19:14.402Z,1479.5864
2023-04-11T11:24:15.966Z,1519.75295
2023-04-11T11:29:17.681Z,1543.7829
2023-04-11T11:39:23.655Z,1606.1349
2023-04-11T11:44:25.048Z,1632.9126
2023-04-11T11:49:26.324Z,1649.47325
2023-04-11T11:54:27.714Z,1668.2283
2023-04-11T11:59:29.190Z,1704.33695
2023-04-11T12:04:30.739Z,1722.4835
2023-04-11T12:09:32.242Z,1759.2558
2023-04-11T12:14:33.797Z,1773.47375
2023-04-11T12:19:35.164Z,1796.43315
2023-04-11T12:24:36.547Z,1790.18085
2023-04-11T12:29:37.986Z,1819.74245
2023-04-11T12:34:39.250Z,1829.97665
2023-04-11T12:39:40.608Z,1846.81305
2023-04-11T12:44:42.318Z,1856.43875
2023-04-11T12:49:43.563Z,1861.7308
2023-04-11T12:54:44.992Z,1856.1973
2023-04-11T12:59:46.231Z,1863.6096
2023-04-11T13:04:47.564Z,1877.07075
2023-04-11T13:09:49.077Z,1867.97755
2023-04-11T13:14:50.360Z,1862.68365
2023-04-11T13:19:51.588Z,1857.50005
2023-04-11T13:24:52.996Z,1853.90235
2023-04-11T13:29:54.697Z,1848.11025
2023-04-11T13:34:56.012Z,1831.1237
2023-04-11T13:39:58.048Z,1810.5413
2023-04-11T13:44:59.949Z,1804.7492
2023-04-11T13:50:01.928Z,1790.5104
2023-04-11T13:55:03.658Z,1771.43975
2023-04-11T14:00:05.522Z,1749.8058
2023-04-11T14:05:07.014Z,1724.13295
2023-04-11T14:10:08.420Z,1695.159
2023-04-11T14:15:10.035Z,1668.8225
2023-04-11T14:20:11.669Z,1635.8838
2023-04-11T14:25:13.168Z,1604.34655
2023-04-11T14:30:14.837Z,1545.2938
2023-04-11T14:35:16.456Z,1477.4996
2023-04-11T14:40:18.281Z,1400.35545
2023-04-11T14:45:19.736Z,1315.44725
2023-04-11T14:50:21.214Z,1214.8265
2023-04-11T14:55:22.633Z,1056.8872
2023-04-11T15:00:24.123Z,876.9279
2023-04-11T15:05:25.348Z,689.92335
2023-04-11T15:10:26.854Z,524.01655
2023-04-11T15:15:28.802Z,377.30785
2023-04-11T15:20:30.272Z,292.90905
2023-04-11T15:25:31.899Z,236.79215
2023-04-11T15:30:33.728Z,159.04635
2023-04-11T15:35:35.288Z,76.85675
2023-04-11T15:40:37.106Z,69.97145
2023-04-11T15:45:38.998Z,56.36015
2023-04-11T15:50:40.644Z,35.92605
2023-04-11T15:55:42.489Z,21.5408
2023-04-11T16:00:48.478Z,9.97745
2023-04-11T16:05:50.173Z,2.9036
2023-04-11T16:10:51.723Z,1.3463
2023-04-11T16:15:53.601Z,1.16185
2023-04-11T16:20:55.560Z,0.88715
2023-04-11T16:25:57.461Z,0.88715
2023-04-11T16:30:59.863Z,0.88715
2023-04-11T16:36:01.614Z,0.88715
2023-04-11T16:41:03.391Z,0.88715
2023-04-11T16:46:05.372Z,0
2023-04-11T16:51:07.075Z,0
2023-04-11T16:56:09.023Z,0
2023-04-11T17:01:11.025Z,0
2023-04-11T17:06:13.509Z,0
2023-04-11T17:11:15.858Z,0
2023-04-11T17:16:17.590Z,0
2023-04-11T17:21:19.062Z,0
2023-04-11T17:26:20.354Z,0
2023-04-11T17:31:21.738Z,0
2023-04-11T17:36:23.276Z,0
2023-04-11T17:41:24.838Z,0
2023-04-11T17:46:26.182Z,0
2023-04-11T17:51:28.916Z,0
2023-04-11T17:56:30.944Z,0
2023-04-11T18:01:32.877Z,0
2023-04-11T18:06:34.344Z,0.88715
2023-04-11T18:11:36.355Z,0
2023-04-11T18:16:38.309Z,0
2023-04-11T18:21:39.648Z,0
2023-04-11T18:26:41.238Z,0.88715
2023-04-11T18:31:43.144Z,0.88715
2023-04-11T18:36:45.305Z,0.88715
2023-04-11T18:41:48.389Z,0.88715
2023-04-11T18:46:52.211Z,0
2023-04-11T18:51:55.114Z,0
2023-04-11T18:56:57.819Z,0
2023-04-11T19:02:00.398Z,0
2023-04-11T19:07:02.416Z,0.88715
2023-04-11T19:12:03.996Z,0.88715
2023-04-11T19:17:05.686Z,0.88715
2023-04-11T19:22:06.955Z,0
2023-04-11T19:27:08.187Z,0
2023-04-11T19:32:10.039Z,0.88715
2023-04-11T19:37:11.366Z,0
2023-04-11T19:42:12.725Z,0.88715
2023-04-11T19:47:14.251Z,0
2023-04-11T19:52:15.565Z,0
2023-04-11T19:57:17.009Z,0
2023-04-11T20:02:19.167Z,0
2023-04-11T20:07:20.536Z,0
2023-04-11T20:12:23.087Z,0
2023-04-11T20:17:24.939Z,0
2023-04-11T20:22:26.211Z,0
2023-04-11T20:27:27.482Z,0
2023-04-11T20:32:28.969Z,0
2023-04-11T20:37:30.431Z,0
2023-04-11T20:42:31.763Z,0
2023-04-11T20:47:33.173Z,0
2023-04-11T20:52:34.931Z,0
2023-04-11T20:57:36.462Z,0.88715
2023-04-11T21:02:38.367Z,0
2023-04-11T21:07:40.173Z,0
2023-04-11T21:12:41.748Z,0.88715
2023-04-11T21:17:43.516Z,0
2023-04-11T21:22:44.779Z,0
2023-04-11T21:27:46.115Z,0
2023-04-11T21:32:47.596Z,0
2023-04-11T21:37:49.376Z,0
2023-04-11T21:42:50.717Z,0
2023-04-11T21:47:52.615Z,0
2023-04-11T21:52:54.164Z,0
2023-04-11T21:57:55.434Z,0
2023-04-11T22:02:57.808Z,0
2023-04-11T22:07:59.222Z,0
2023-04-11T22:13:00.496Z,0.88715
2023-04-11T22:18:02.235Z,0.88715
2023-04-11T22:23:03.578Z,0
2023-04-11T22:28:05.035Z,0
2023-04-11T22:33:06.661Z,0
2023-04-11T22:38:08.328Z,0
2023-04-11T22:43:09.585Z,0
2023-04-11T22:48:11.429Z,0
2023-04-11T22:53:13.140Z,0
2023-04-11T22:58:14.821Z,0
2023-04-11T23:03:16.661Z,0
2023-04-11T23:08:17.995Z,0
2023-04-11T23:13:19.603Z,0
2023-04-11T23:18:21.034Z,0
2023-04-11T23:23:22.307Z,0
2023-04-11T23:28:23.593Z,0
2023-04-11T23:33:24.993Z,0
2023-04-11T23:38:26.379Z,0
2023-04-11T23:43:27.874Z,0
2023-04-11T23:48:29.303Z,0
2023-04-11T23:53:30.613Z,0
2023-04-11T23:58:31.928Z,0
